Time;durP1;ratioP1;P1;durP2;ratioP2;P2;SDS_P1;SDS_P2;PMS_P1;PMS_P2;Temp;Humidity;BMP_temperature;BMP_pressure;BME280_temperature;BME280_humidity;BME280_pressure;Samples;Min_cycle;Max_cycle;Signal;HPM_P1;HPM_P2
2024/04/10 00:02:09;;;;;;;13.30;1.00;;;;;;;;;;5316560;26;98754;-51
2024/04/10 00:04:34;;;;;;;11.27;1.02;;;;;;;;;;5310287;26;96400;-53
2024/04/10 00:06:59;;;;;;;12.25;1.00;;;;;;;;;;5322608;26;95421;-51
2024/04/10 00:09:25;;;;;;;11.60;0.95;;;;;;;;;;5322896;26;96008;-48
2024/04/10 00:11:50;;;;;;;9.43;0.93;;;;;;;;;;5329865;26;95893;-48
2024/04/10 00:14:16;;;;;;;12.52;0.85;;;;;;;;;;5329952;26;95871;-48
2024/04/10 00:16:41;;;;;;;8.07;0.63;;;;;;;;;;5326166;26;96020;-48
2024/04/10 00:19:06;;;;;;;14.25;1.08;;;;;;;;;;5322864;26;96208;-48
2024/04/10 00:21:35;;;;;;;13.07;0.90;;;;;;;;;;5324529;26;95879;-48
2024/04/10 00:24:00;;;;;;;11.13;0.77;;;;;;;;;;5308191;26;97157;-48
2024/04/10 00:26:25;;;;;;;13.38;1.05;;;;;;;;;;5320107;26;96151;-48
2024/04/10 00:28:50;;;;;;;8.05;0.70;;;;;;;;;;5324977;26;109574;-48
2024/04/10 00:31:16;;;;;;;10.40;0.90;;;;;;;;;;5331519;26;96040;-48
2024/04/10 00:33:41;;;;;;;9.32;0.65;;;;;;;;;;5317324;26;95682;-48
2024/04/10 00:36:08;;;;;;;10.32;1.35;;;;;;;;;;5332021;26;97207;-48
2024/04/10 00:38:33;;;;;;;25.05;4.00;;;;;;;;;;5322138;26;95795;-48
2024/04/10 00:41:04;;;;;;;7.07;0.63;;;;;;;;;;5321621;26;96121;-48
2024/04/10 00:43:29;;;;;;;5.25;0.75;;;;;;;;;;5319676;26;96023;-48
2024/04/10 00:45:57;;;;;;;11.30;0.90;;;;;;;;;;5323382;26;96186;-48
2024/04/10 00:48:23;;;;;;;13.15;0.93;;;;;;;;;;5313472;26;96083;-48
2024/04/10 00:50:50;;;;;;;14.52;1.30;;;;;;;;;;5289191;26;96230;-48
2024/04/10 00:53:16;;;;;;;11.65;0.88;;;;;;;;;;5322901;26;97298;-48
2024/04/10 00:55:41;;;;;;;8.65;0.90;;;;;;;;;;5318371;26;95961;-48
2024/04/10 00:58:07;;;;;;;12.13;0.95;;;;;;;;;;5325782;26;95725;-48
2024/04/10 01:00:34;;;;;;;10.35;1.02;;;;;;;;;;5318397;26;95994;-51
2024/04/10 01:02:59;;;;;;;9.93;0.60;;;;;;;;;;5332030;26;96020;-53
2024/04/10 01:05:24;;;;;;;8.35;1.20;;;;;;;;;;5306897;26;95794;-54
2024/04/10 01:07:50;;;;;;;9.55;1.27;;;;;;;;;;5324620;26;95977;-52
2024/04/10 01:10:16;;;;;;;11.52;1.17;;;;;;;;;;5325766;26;96038;-51
2024/04/10 01:12:43;;;;;;;7.57;1.02;;;;;;;;;;5321366;26;96206;-53
2024/04/10 01:15:09;;;;;;;10.60;1.08;;;;;;;;;;5307512;26;95878;-51
2024/04/10 01:17:34;;;;;;;14.70;1.00;;;;;;;;;;5322847;26;95909;-51
2024/04/10 01:20:05;;;;;;;12.55;0.90;;;;;;;;;;5317682;26;97056;-47
2024/04/10 01:22:31;;;;;;;8.65;0.90;;;;;;;;;;5306831;26;96033;-48
2024/04/10 01:24:56;;;;;;;11.00;0.95;;;;;;;;;;5289622;26;95752;-48
2024/04/10 01:27:21;;;;;;;13.98;0.75;;;;;;;;;;5324369;26;95857;-47
2024/04/10 01:29:47;;;;;;;10.07;0.65;;;;;;;;;;5293132;26;98092;-53
2024/04/10 01:32:12;;;;;;;14.20;1.30;;;;;;;;;;5326581;26;95781;-53
2024/04/10 01:34:37;;;;;;;11.32;0.88;;;;;;;;;;5313758;26;96037;-48
2024/04/10 01:37:03;;;;;;;5.82;0.55;;;;;;;;;;5319950;26;96203;-47
2024/04/10 01:39:28;;;;;;;7.15;1.10;;;;;;;;;;5317225;26;95456;-48
2024/04/10 01:41:53;;;;;;;9.18;0.70;;;;;;;;;;5332390;26;100428;-54
2024/04/10 01:44:18;;;;;;;9.88;0.82;;;;;;;;;;5322185;26;95677;-52
2024/04/10 01:46:44;;;;;;;15.77;2.03;;;;;;;;;;5322377;26;96052;-48
2024/04/10 01:49:09;;;;;;;10.70;0.63;;;;;;;;;;5317701;26;97702;-47
2024/04/10 01:51:35;;;;;;;9.40;0.60;;;;;;;;;;5321784;26;96228;-48
2024/04/10 01:54:00;;;;;;;6.88;0.65;;;;;;;;;;5331628;26;95959;-48
2024/04/10 01:56:25;;;;;;;9.70;0.73;;;;;;;;;;5304453;26;97264;-48
2024/04/10 01:58:51;;;;;;;15.90;0.90;;;;;;;;;;5314787;26;95661;-48
2024/04/10 02:01:16;;;;;;;8.77;1.10;;;;;;;;;;5316507;26;97725;-48
2024/04/10 02:03:41;;;;;;;9.00;0.93;;;;;;;;;;5317028;26;97056;-48
2024/04/10 02:06:07;;;;;;;7.00;1.10;;;;;;;;;;5312319;26;97311;-47
2024/04/10 02:08:32;;;;;;;10.63;0.95;;;;;;;;;;5304669;26;98285;-47
2024/04/10 02:11:19;;;;;;;14.50;0.85;;;;;;;;;;5318227;26;95686;-47
2024/04/10 02:13:43;;;;;;;6.88;0.60;;;;;;;;;;5319880;26;96994;-47
2024/04/10 02:16:08;;;;;;;8.90;0.90;;;;;;;;;;5284988;26;98289;-51
2024/04/10 02:18:33;;;;;;;8.75;0.73;;;;;;;;;;5330390;26;95696;-52
2024/04/10 02:20:59;;;;;;;11.77;1.00;;;;;;;;;;5283300;26;96162;-47
2024/04/10 02:23:24;;;;;;;9.73;0.85;;;;;;;;;;5319802;26;97745;-48
2024/04/10 02:25:49;;;;;;;11.30;1.67;;;;;;;;;;5328942;26;96986;-47
2024/04/10 02:28:15;;;;;;;6.13;0.60;;;;;;;;;;5311289;26;97716;-47
2024/04/10 02:30:40;;;;;;;8.55;0.55;;;;;;;;;;5318858;26;97567;-47
2024/04/10 02:33:05;;;;;;;7.68;0.50;;;;;;;;;;5318792;26;97143;-47
2024/04/10 02:35:31;;;;;;;8.27;0.70;;;;;;;;;;5313289;26;97087;-47
2024/04/10 02:37:56;;;;;;;11.07;1.60;;;;;;;;;;5317802;26;95541;-47
2024/04/10 02:40:21;;;;;;;7.72;0.80;;;;;;;;;;5326970;26;97801;-47
2024/04/10 02:42:57;;;;;;;8.77;0.70;;;;;;;;;;5321820;26;96010;-47
2024/04/10 02:45:22;;;;;;;8.68;0.90;;;;;;;;;;5323231;26;98032;-47
2024/04/10 02:47:48;;;;;;;11.20;1.00;;;;;;;;;;5324253;26;97864;-47
2024/04/10 02:50:13;;;;;;;10.65;1.05;;;;;;;;;;5329661;26;96212;-47
2024/04/10 02:52:38;;;;;;;8.63;0.60;;;;;;;;;;5324680;26;95962;-47
2024/04/10 02:55:04;;;;;;;13.68;1.48;;;;;;;;;;5314788;26;96004;-47
2024/04/10 02:57:29;;;;;;;12.07;1.10;;;;;;;;;;5316983;26;95565;-48
2024/04/10 02:59:54;;;;;;;8.40;1.33;;;;;;;;;;5311905;26;95905;-47
2024/04/10 03:02:20;;;;;;;10.38;0.60;;;;;;;;;;5307540;26;98318;-47
2024/04/10 03:04:46;;;;;;;9.15;0.93;;;;;;;;;;5321183;26;97191;-47
2024/04/10 03:07:15;;;;;;;8.45;1.38;;;;;;;;;;5314555;26;96567;-47
2024/04/10 03:09:40;;;;;;;9.90;0.70;;;;;;;;;;5326034;26;97033;-48
2024/04/10 03:12:07;;;;;;;9.63;0.60;;;;;;;;;;5312822;26;96142;-47
2024/04/10 03:14:33;;;;;;;8.90;0.50;;;;;;;;;;5316725;26;95820;-47
2024/04/10 03:16:59;;;;;;;12.27;0.88;;;;;;;;;;5309645;26;95673;-48
2024/04/10 03:19:24;;;;;;;8.75;0.85;;;;;;;;;;5312759;26;96001;-48
2024/04/10 03:21:50;;;;;;;9.95;1.40;;;;;;;;;;5310929;26;98089;-47
2024/04/10 03:24:15;;;;;;;39.30;20.98;;;;;;;;;;5319627;26;95774;-47
2024/04/10 03:26:40;;;;;;;19.85;7.03;;;;;;;;;;5328248;26;97287;-47
2024/04/10 03:29:06;;;;;;;8.45;2.25;;;;;;;;;;5284563;26;95698;-47
2024/04/10 03:31:31;;;;;;;9.90;1.23;;;;;;;;;;5307081;26;96117;-47
2024/04/10 03:33:56;;;;;;;6.55;1.02;;;;;;;;;;5285145;26;96214;-47
2024/04/10 03:36:22;;;;;;;8.20;1.02;;;;;;;;;;5302446;26;95641;-47
2024/04/10 03:38:49;;;;;;;4.88;0.50;;;;;;;;;;5310868;26;96019;-47
2024/04/10 03:41:14;;;;;;;12.25;0.88;;;;;;;;;;5315773;26;96149;-47
2024/04/10 03:43:39;;;;;;;7.72;0.57;;;;;;;;;;5332850;26;96151;-47
2024/04/10 03:46:06;;;;;;;9.93;0.73;;;;;;;;;;5313952;26;96490;-47
2024/04/10 03:48:32;;;;;;;8.52;0.73;;;;;;;;;;5337255;26;95962;-47
2024/04/10 03:51:00;;;;;;;10.10;0.98;;;;;;;;;;5312185;26;95830;-47
2024/04/10 03:53:26;;;;;;;10.20;0.90;;;;;;;;;;5319987;26;96042;-47
2024/04/10 03:55:51;;;;;;;10.20;0.50;;;;;;;;;;5324714;26;96213;-49
2024/04/10 03:58:17;;;;;;;7.68;0.52;;;;;;;;;;5335283;26;96613;-47
2024/04/10 04:00:42;;;;;;;9.50;0.75;;;;;;;;;;5314010;26;96324;-54
2024/04/10 04:03:07;;;;;;;8.23;0.70;;;;;;;;;;5317180;26;95966;-53
2024/04/10 04:05:32;;;;;;;8.70;0.65;;;;;;;;;;5319737;26;95958;-46
2024/04/10 04:07:58;;;;;;;12.43;1.05;;;;;;;;;;5275419;26;97458;-47
2024/04/10 04:10:23;;;;;;;5.57;0.57;;;;;;;;;;5325821;26;95875;-47
2024/04/10 04:12:48;;;;;;;6.55;0.68;;;;;;;;;;5324959;26;96020;-47
2024/04/10 04:15:15;;;;;;;7.40;0.73;;;;;;;;;;5332202;26;95866;-47
2024/04/10 04:17:40;;;;;;;13.20;0.60;;;;;;;;;;5324978;26;96023;-47
2024/04/10 04:20:09;;;;;;;9.50;0.50;;;;;;;;;;5325705;26;98928;-47
2024/04/10 04:22:35;;;;;;;9.63;0.60;;;;;;;;;;5313960;26;95888;-47
2024/04/10 04:25:00;;;;;;;4.72;0.47;;;;;;;;;;5324223;26;97694;-48
2024/04/10 04:27:32;;;;;;;4.30;0.35;;;;;;;;;;5324858;26;96194;-47
2024/04/10 04:29:57;;;;;;;10.77;0.85;;;;;;;;;;5271214;26;95771;-53
2024/04/10 04:32:22;;;;;;;7.97;0.50;;;;;;;;;;5309050;26;95959;-53
2024/04/10 04:34:48;;;;;;;7.18;0.95;;;;;;;;;;5318197;26;97106;-53
2024/04/10 04:37:13;;;;;;;5.97;0.40;;;;;;;;;;5317959;26;97732;-52
2024/04/10 04:39:39;;;;;;;5.57;0.95;;;;;;;;;;5319691;26;96048;-47
2024/04/10 04:42:04;;;;;;;7.60;0.73;;;;;;;;;;5306570;26;95484;-47
2024/04/10 04:44:29;;;;;;;6.82;0.57;;;;;;;;;;5324238;26;97367;-52
2024/04/10 04:46:55;;;;;;;9.75;0.70;;;;;;;;;;5327153;26;97288;-53
2024/04/10 04:49:20;;;;;;;10.23;0.80;;;;;;;;;;5310382;26;96160;-52
2024/04/10 04:51:46;;;;;;;10.35;0.50;;;;;;;;;;5314766;26;96074;-47
2024/04/10 04:54:11;;;;;;;11.43;0.77;;;;;;;;;;5315738;26;97573;-47
2024/04/10 04:56:37;;;;;;;11.07;1.15;;;;;;;;;;5310573;26;95995;-47
2024/04/10 04:59:04;;;;;;;8.88;0.55;;;;;;;;;;5303447;26;97293;-47
2024/04/10 05:01:29;;;;;;;7.40;0.50;;;;;;;;;;5312544;26;97856;-47
2024/04/10 05:06:38;;;;;;;5.28;0.63;;;;;;;;;;5321790;26;96087;-46
2024/04/10 05:09:09;;;;;;;7.75;0.80;;;;;;;;;;5308391;26;96737;-47
2024/04/10 05:11:35;;;;;;;5.55;0.50;;;;;;;;;;5318421;26;96349;-47
2024/04/10 05:14:01;;;;;;;5.68;0.63;;;;;;;;;;5280518;26;97306;-47
2024/04/10 05:16:26;;;;;;;9.50;0.75;;;;;;;;;;5313349;26;96131;-47
2024/04/10 05:18:51;;;;;;;7.70;1.20;;;;;;;;;;5320499;26;97415;-47
2024/04/10 05:21:16;;;;;;;9.55;0.80;;;;;;;;;;5322595;26;97321;-47
2024/04/10 05:23:42;;;;;;;9.07;0.68;;;;;;;;;;5312141;26;95946;-47
2024/04/10 05:26:07;;;;;;;10.82;0.63;;;;;;;;;;5303348;26;97781;-53
2024/04/10 05:28:32;;;;;;;25.70;7.43;;;;;;;;;;5319489;26;95827;-53
2024/04/10 05:31:06;;;;;;;28.80;15.18;;;;;;;;;;5298877;26;96465;-49
2024/04/10 05:33:31;;;;;;;14.30;3.45;;;;;;;;;;5310648;26;96404;-51
2024/04/10 05:35:59;;;;;;;13.57;1.55;;;;;;;;;;5324505;26;96253;-53
2024/04/10 05:38:24;;;;;;;8.30;1.05;;;;;;;;;;5321155;26;96485;-53
2024/04/10 05:40:49;;;;;;;12.20;1.02;;;;;;;;;;5311227;26;97800;-54
2024/04/10 05:43:15;;;;;;;7.43;0.60;;;;;;;;;;5308293;26;97612;-53
2024/04/10 05:45:40;;;;;;;10.35;0.98;;;;;;;;;;5306789;26;97361;-50
2024/04/10 05:48:06;;;;;;;8.45;0.50;;;;;;;;;;5309328;26;96250;-50
2024/04/10 05:50:31;;;;;;;11.82;0.98;;;;;;;;;;5316650;26;97101;-53
2024/04/10 05:52:56;;;;;;;7.85;0.63;;;;;;;;;;5312925;26;96492;-53
2024/04/10 05:55:22;;;;;;;12.50;0.65;;;;;;;;;;5304502;26;95937;-54
2024/04/10 05:57:47;;;;;;;12.68;1.08;;;;;;;;;;5323115;26;97048;-53
2024/04/10 06:00:14;;;;;;;10.68;0.98;;;;;;;;;;5313273;26;95884;-53
2024/04/10 06:02:39;;;;;;;9.82;0.65;;;;;;;;;;5309669;26;96186;-53
2024/04/10 06:05:06;;;;;;;9.23;0.90;;;;;;;;;;5312071;26;95987;-53
2024/04/10 06:07:33;;;;;;;8.13;0.65;;;;;;;;;;5324356;26;95997;-53
2024/04/10 06:09:59;;;;;;;12.13;0.93;;;;;;;;;;5315902;26;97209;-53
2024/04/10 06:12:24;;;;;;;10.15;0.63;;;;;;;;;;5319206;26;96223;-53
2024/04/10 06:14:57;;;;;;;10.77;1.63;;;;;;;;;;5314050;26;96145;-52
2024/04/10 06:17:24;;;;;;;11.15;1.48;;;;;;;;;;5315878;26;98878;-53
2024/04/10 06:19:50;;;;;;;14.43;1.00;;;;;;;;;;5329865;26;95988;-54
2024/04/10 06:22:15;;;;;;;10.85;1.10;;;;;;;;;;5311919;26;97322;-53
2024/04/10 06:24:42;;;;;;;9.75;1.35;;;;;;;;;;5332158;26;97058;-54
2024/04/10 06:27:08;;;;;;;10.27;1.20;;;;;;;;;;5310172;26;96211;-54
2024/04/10 06:29:33;;;;;;;11.63;1.27;;;;;;;;;;5330320;26;97533;-54
2024/04/10 06:31:58;;;;;;;11.02;1.05;;;;;;;;;;5310197;26;96103;-55
2024/04/10 06:34:23;;;;;;;9.57;1.10;;;;;;;;;;5307035;26;95964;-55
2024/04/10 06:36:49;;;;;;;8.02;0.80;;;;;;;;;;5320397;26;96392;-56
2024/04/10 06:39:14;;;;;;;10.00;1.25;;;;;;;;;;5319356;26;97292;-54
2024/04/10 06:41:39;;;;;;;12.18;1.63;;;;;;;;;;5310217;26;96500;-54
2024/04/10 06:44:05;;;;;;;10.07;1.25;;;;;;;;;;5325787;26;96015;-54
2024/04/10 06:46:31;;;;;;;15.52;1.30;;;;;;;;;;5315737;26;96407;-54
2024/04/10 06:48:56;;;;;;;8.98;0.63;;;;;;;;;;5316699;26;95987;-54
2024/04/10 06:51:22;;;;;;;12.15;0.90;;;;;;;;;;5328588;26;95879;-54
2024/04/10 06:53:47;;;;;;;10.32;1.05;;;;;;;;;;5308925;26;95765;-55
2024/04/10 06:56:12;;;;;;;9.18;0.98;;;;;;;;;;5320362;26;97848;-55
2024/04/10 06:58:38;;;;;;;13.15;1.65;;;;;;;;;;5325327;26;95958;-54
2024/04/10 07:01:08;;;;;;;9.45;0.88;;;;;;;;;;5311612;26;96024;-54
2024/04/10 07:03:37;;;;;;;12.48;0.80;;;;;;;;;;5308760;26;96069;-54
2024/04/10 07:06:10;;;;;;;11.13;1.40;;;;;;;;;;5310629;26;95951;-52
2024/04/10 07:08:41;;;;;;;13.02;0.55;;;;;;;;;;5305758;26;96002;-53
2024/04/10 07:11:11;;;;;;;11.50;0.73;;;;;;;;;;5319863;26;96028;-52
2024/04/10 07:13:39;;;;;;;8.18;0.57;;;;;;;;;;5322815;26;95529;-54
2024/04/10 07:16:05;;;;;;;8.82;0.80;;;;;;;;;;5314076;26;95622;-53
2024/04/10 07:18:31;;;;;;;15.52;0.98;;;;;;;;;;5315590;26;95946;-52
2024/04/10 07:21:00;;;;;;;10.10;1.98;;;;;;;;;;5320392;26;95607;-53
2024/04/10 07:23:26;;;;;;;12.07;1.17;;;;;;;;;;5331111;26;96186;-53
2024/04/10 07:25:52;;;;;;;17.90;1.45;;;;;;;;;;5323757;26;96112;-53
2024/04/10 07:28:17;;;;;;;10.02;0.75;;;;;;;;;;5319588;26;97259;-53
2024/04/10 07:30:52;;;;;;;14.10;0.85;;;;;;;;;;5317448;26;97144;-52
2024/04/10 07:33:17;;;;;;;13.95;0.80;;;;;;;;;;5317590;26;95571;-56
2024/04/10 07:35:43;;;;;;;15.00;0.95;;;;;;;;;;5322230;26;95983;-53
2024/04/10 07:38:09;;;;;;;12.25;1.08;;;;;;;;;;5321237;26;96160;-54
2024/04/10 07:40:34;;;;;;;9.65;1.02;;;;;;;;;;5321443;26;95864;-53
2024/04/10 07:43:00;;;;;;;11.82;1.00;;;;;;;;;;5317454;26;96080;-54
2024/04/10 07:45:28;;;;;;;10.43;0.80;;;;;;;;;;5286263;26;96228;-52
2024/04/10 07:47:54;;;;;;;14.50;0.90;;;;;;;;;;5313200;26;98291;-53
2024/04/10 07:50:19;;;;;;;6.22;0.63;;;;;;;;;;5314862;26;97250;-55
2024/04/10 07:52:45;;;;;;;9.43;0.85;;;;;;;;;;5314390;26;97965;-53
2024/04/10 07:55:11;;;;;;;13.80;0.70;;;;;;;;;;5318565;26;95926;-54
2024/04/10 07:57:37;;;;;;;20.98;3.03;;;;;;;;;;5329334;26;96271;-53
2024/04/10 08:00:03;;;;;;;9.57;0.77;;;;;;;;;;5330228;26;96064;-51
2024/04/10 08:02:28;;;;;;;10.77;0.90;;;;;;;;;;5316458;26;95937;-51
2024/04/10 08:04:53;;;;;;;13.60;0.98;;;;;;;;;;5317810;26;96172;-51
2024/04/10 08:07:19;;;;;;;11.13;1.35;;;;;;;;;;5321667;26;96080;-51
2024/04/10 08:09:44;;;;;;;11.45;1.13;;;;;;;;;;5317183;26;97162;-51
2024/04/10 08:12:09;;;;;;;12.65;0.90;;;;;;;;;;5320644;26;96883;-51
2024/04/10 08:14:35;;;;;;;14.95;1.35;;;;;;;;;;5315392;26;96135;-52
2024/04/10 08:17:00;;;;;;;10.25;0.85;;;;;;;;;;5326053;26;96020;-54
2024/04/10 08:19:26;;;;;;;13.57;0.70;;;;;;;;;;5315625;26;97723;-52
2024/04/10 08:21:51;;;;;;;15.30;0.88;;;;;;;;;;5314080;26;97081;-53
2024/04/10 08:24:16;;;;;;;9.95;0.65;;;;;;;;;;5313465;26;96114;-54
2024/04/10 08:26:41;;;;;;;10.68;0.95;;;;;;;;;;5316162;26;95939;-53
2024/04/10 08:29:09;;;;;;;11.30;0.40;;;;;;;;;;5325999;26;102557;-53
2024/04/10 08:31:34;;;;;;;6.55;0.73;;;;;;;;;;5312783;26;95968;-52
2024/04/10 08:34:00;;;;;;;11.90;0.95;;;;;;;;;;5299941;26;96540;-53
2024/04/10 08:36:27;;;;;;;9.48;1.05;;;;;;;;;;5308930;26;97248;-53
2024/04/10 08:38:53;;;;;;;12.55;0.63;;;;;;;;;;5322618;26;98059;-53
2024/04/10 08:41:21;;;;;;;9.60;0.50;;;;;;;;;;5324177;26;96042;-52
2024/04/10 08:43:56;;;;;;;5.78;0.40;;;;;;;;;;5315896;26;96145;-52
2024/04/10 08:46:23;;;;;;;9.75;1.02;;;;;;;;;;5312060;26;98356;-51
2024/04/10 08:48:54;;;;;;;8.60;0.40;;;;;;;;;;5330808;26;95983;-51
2024/04/10 08:51:22;;;;;;;10.48;0.45;;;;;;;;;;5326029;26;96020;-54
2024/04/10 08:53:50;;;;;;;10.20;0.65;;;;;;;;;;5304380;26;96082;-54
2024/04/10 08:56:16;;;;;;;8.57;1.00;;;;;;;;;;5321605;26;96337;-53
2024/04/10 08:58:41;;;;;;;12.25;1.95;;;;;;;;;;5326852;26;97396;-53
2024/04/10 09:01:07;;;;;;;14.95;2.15;;;;;;;;;;5314483;26;95829;-51
2024/04/10 09:03:33;;;;;;;4.55;0.20;;;;;;;;;;5310512;26;96029;-52
2024/04/10 09:06:06;;;;;;;8.05;0.30;;;;;;;;;;5313124;26;95834;-54
2024/04/10 09:08:31;;;;;;;7.10;0.30;;;;;;;;;;5320633;26;96084;-52
2024/04/10 09:10:56;;;;;;;8.57;0.40;;;;;;;;;;5324165;26;95997;-52
2024/04/10 09:13:22;;;;;;;6.40;0.30;;;;;;;;;;5319102;26;95990;-52
2024/04/10 09:15:56;;;;;;;2.75;0.20;;;;;;;;;;5321354;26;97095;-52
2024/04/10 09:18:22;;;;;;;7.90;0.20;;;;;;;;;;5315471;26;95902;-52
2024/04/10 09:20:47;;;;;;;3.50;0.15;;;;;;;;;;5301130;26;96032;-50
2024/04/10 09:23:14;;;;;;;7.47;0.45;;;;;;;;;;5316969;26;96094;-50
2024/04/10 09:25:42;;;;;;;5.55;0.30;;;;;;;;;;5318182;26;96278;-52
2024/04/10 09:28:07;;;;;;;6.32;0.38;;;;;;;;;;5321195;26;96049;-52
2024/04/10 09:30:34;;;;;;;9.07;0.52;;;;;;;;;;5319622;26;96478;-52
2024/04/10 09:33:01;;;;;;;6.68;0.40;;;;;;;;;;5309293;26;96990;-51
2024/04/10 09:35:27;;;;;;;5.55;0.55;;;;;;;;;;5320342;26;96089;-51
2024/04/10 09:37:58;;;;;;;5.20;0.57;;;;;;;;;;5307943;26;95967;-52
2024/04/10 09:40:28;;;;;;;3.97;0.20;;;;;;;;;;5319548;26;95991;-52
2024/04/10 09:42:59;;;;;;;6.68;0.20;;;;;;;;;;5318398;26;96244;-52
2024/04/10 09:45:27;;;;;;;4.95;0.30;;;;;;;;;;5298804;26;95707;-51
2024/04/10 09:47:55;;;;;;;7.57;0.30;;;;;;;;;;5321127;26;96624;-51
2024/04/10 09:50:24;;;;;;;4.45;0.20;;;;;;;;;;5315353;26;96108;-52
2024/04/10 09:52:51;;;;;;;10.85;0.52;;;;;;;;;;5309168;26;95884;-51
2024/04/10 09:55:16;;;;;;;4.90;0.25;;;;;;;;;;5333041;26;96247;-51
2024/04/10 09:57:43;;;;;;;6.50;0.55;;;;;;;;;;5312080;26;95915;-49
2024/04/10 10:00:09;;;;;;;7.43;0.30;;;;;;;;;;5310106;26;96203;-50
2024/04/10 10:02:35;;;;;;;3.63;0.20;;;;;;;;;;5312683;26;96132;-50
2024/04/10 10:05:00;;;;;;;2.42;0.10;;;;;;;;;;5319282;26;95776;-50
2024/04/10 10:07:25;;;;;;;2.33;0.20;;;;;;;;;;5319095;26;96281;-50
2024/04/10 10:09:52;;;;;;;3.88;0.40;;;;;;;;;;5309138;26;96044;-52
2024/04/10 10:12:27;;;;;;;3.72;0.15;;;;;;;;;;5310275;26;97508;-51
2024/04/10 10:14:52;;;;;;;9.32;0.32;;;;;;;;;;5321028;26;96520;-52
2024/04/10 10:17:24;;;;;;;5.68;0.40;;;;;;;;;;5310967;26;96039;-51
2024/04/10 10:19:49;;;;;;;5.30;0.85;;;;;;;;;;5316770;26;96108;-50
2024/04/10 10:22:15;;;;;;;13.32;0.35;;;;;;;;;;5297916;26;95911;-51
2024/04/10 10:24:40;;;;;;;10.40;0.63;;;;;;;;;;5322350;26;96281;-51
2024/04/10 10:27:05;;;;;;;4.32;0.30;;;;;;;;;;5318746;26;96026;-50
2024/04/10 10:29:31;;;;;;;6.70;0.38;;;;;;;;;;5313778;26;96101;-52
2024/04/10 10:32:05;;;;;;;6.15;0.40;;;;;;;;;;5312820;26;95816;-51
2024/04/10 10:34:30;;;;;;;88.35;5.70;;;;;;;;;;5285967;26;97642;-55
2024/04/10 10:37:02;;;;;;;5.85;0.43;;;;;;;;;;5309655;26;97410;-52
2024/04/10 10:39:27;;;;;;;8.40;0.30;;;;;;;;;;5332078;26;95441;-52
2024/04/10 10:42:00;;;;;;;6.82;0.35;;;;;;;;;;5299472;26;97515;-52
2024/04/10 10:44:26;;;;;;;7.60;0.47;;;;;;;;;;5314365;26;96931;-51
2024/04/10 10:46:52;;;;;;;5.57;0.63;;;;;;;;;;5319329;26;96030;-52
2024/04/10 10:49:17;;;;;;;7.93;0.63;;;;;;;;;;5308052;26;96225;-52
2024/04/10 10:51:42;;;;;;;5.95;0.40;;;;;;;;;;5322304;26;95637;-51
2024/04/10 10:54:09;;;;;;;6.55;0.30;;;;;;;;;;5323617;26;96107;-51
2024/04/10 10:56:35;;;;;;;4.20;0.30;;;;;;;;;;5311266;26;96104;-50
2024/04/10 10:59:18;;;;;;;5.38;0.30;;;;;;;;;;5329703;26;95827;-50
2024/04/10 11:01:44;;;;;;;4.38;0.20;;;;;;;;;;5312460;26;96157;-49
2024/04/10 11:04:10;;;;;;;4.35;0.30;;;;;;;;;;5312780;26;95585;-50
2024/04/10 11:06:37;;;;;;;8.05;0.30;;;;;;;;;;5318557;26;96052;-49
2024/04/10 11:09:06;;;;;;;6.50;0.30;;;;;;;;;;5321557;26;96674;-49
2024/04/10 11:11:31;;;;;;;7.05;0.38;;;;;;;;;;5311536;26;95928;-51
2024/04/10 11:13:56;;;;;;;6.93;0.38;;;;;;;;;;5321947;26;97137;-51
2024/04/10 11:16:28;;;;;;;5.05;0.20;;;;;;;;;;5286512;26;99577;-52
2024/04/10 11:18:54;;;;;;;5.20;0.30;;;;;;;;;;5314371;26;95702;-51
2024/04/10 11:21:20;;;;;;;4.72;0.20;;;;;;;;;;5317222;26;96802;-49
2024/04/10 11:23:45;;;;;;;2.95;0.20;;;;;;;;;;5316941;26;95521;-50
2024/04/10 11:26:11;;;;;;;6.03;0.50;;;;;;;;;;5321064;26;96020;-51
2024/04/10 11:28:36;;;;;;;3.47;0.25;;;;;;;;;;5307097;26;96107;-51
2024/04/10 11:31:02;;;;;;;5.22;0.30;;;;;;;;;;5301866;26;95668;-51
2024/04/10 11:33:27;;;;;;;8.50;0.30;;;;;;;;;;5303365;26;97127;-51
2024/04/10 11:35:52;;;;;;;5.85;0.32;;;;;;;;;;5318108;26;98174;-50
2024/04/10 11:38:18;;;;;;;10.23;0.95;;;;;;;;;;5290007;26;95790;-50
2024/04/10 11:40:43;;;;;;;8.23;0.50;;;;;;;;;;5311192;26;95930;-49
2024/04/10 11:43:08;;;;;;;4.30;0.20;;;;;;;;;;5325570;26;97498;-49
2024/04/10 11:45:35;;;;;;;5.15;0.20;;;;;;;;;;5322742;26;95827;-51
2024/04/10 11:48:00;;;;;;;5.75;0.20;;;;;;;;;;5304445;26;96286;-51
2024/04/10 11:50:25;;;;;;;6.00;0.30;;;;;;;;;;5306611;26;96652;-51
2024/04/10 11:52:51;;;;;;;3.00;0.20;;;;;;;;;;5325311;26;97520;-51
2024/04/10 11:55:16;;;;;;;8.32;0.35;;;;;;;;;;5300647;26;97346;-50
2024/04/10 11:57:42;;;;;;;3.58;0.30;;;;;;;;;;5322332;26;95810;-50
2024/04/10 12:00:09;;;;;;;6.13;0.40;;;;;;;;;;5324978;26;96156;-51
2024/04/10 12:02:34;;;;;;;7.22;0.85;;;;;;;;;;5322176;26;96128;-51
2024/04/10 12:05:04;;;;;;;3.85;0.20;;;;;;;;;;5305426;26;96314;-49
2024/04/10 12:07:29;;;;;;;;;;;;;;;;;;5308356;26;98047;-50
2024/04/10 12:09:55;;;;;;;5.65;0.35;;;;;;;;;;5319860;26;95764;-53
2024/04/10 12:12:21;;;;;;;6.07;0.30;;;;;;;;;;5301070;26;98693;-50
2024/04/10 12:14:46;;;;;;;8.50;0.82;;;;;;;;;;5321352;26;96768;-51
2024/04/10 12:17:12;;;;;;;4.65;0.30;;;;;;;;;;5315033;26;96141;-52
2024/04/10 12:19:37;;;;;;;5.45;0.22;;;;;;;;;;5312118;26;99232;-50
2024/04/10 12:22:02;;;;;;;3.33;0.35;;;;;;;;;;5316444;26;98670;-50
2024/04/10 12:24:28;;;;;;;3.63;0.20;;;;;;;;;;5309502;26;95978;-49
2024/04/10 12:26:55;;;;;;;6.80;0.28;;;;;;;;;;5313772;26;96013;-52
2024/04/10 12:29:21;;;;;;;4.25;0.40;;;;;;;;;;5320565;26;95434;-51
2024/04/10 12:31:47;;;;;;;2.22;0.20;;;;;;;;;;5314763;26;97279;-48
2024/04/10 12:34:12;;;;;;;2.05;0.20;;;;;;;;;;5316959;26;96163;-51
2024/04/10 12:39:22;;;;;;;5.13;0.22;;;;;;;;;;5312479;26;95964;-49
2024/04/10 12:41:49;;;;;;;3.00;0.20;;;;;;;;;;5315360;26;96092;-52
2024/04/10 12:44:19;;;;;;;7.78;0.35;;;;;;;;;;5322204;26;95560;-50
2024/04/10 12:46:47;;;;;;;6.72;0.55;;;;;;;;;;5330882;26;96081;-52
2024/04/10 12:49:12;;;;;;;4.88;0.15;;;;;;;;;;5317967;26;96429;-51
2024/04/10 12:51:38;;;;;;;2.60;0.32;;;;;;;;;;5326270;26;98642;-51
2024/04/10 12:54:03;;;;;;;22.00;1.02;;;;;;;;;;5318454;26;102472;-52
2024/04/10 12:56:28;;;;;;;5.30;0.30;;;;;;;;;;5311795;26;95749;-51
2024/04/10 12:58:54;;;;;;;4.30;0.20;;;;;;;;;;5313645;26;96105;-53
2024/04/10 13:01:19;;;;;;;8.52;1.08;;;;;;;;;;5322005;26;96082;-51
2024/04/10 13:03:44;;;;;;;8.98;0.38;;;;;;;;;;5303960;26;95947;-52
2024/04/10 13:06:09;;;;;;;6.95;0.32;;;;;;;;;;5314640;26;96001;-49
2024/04/10 13:09:37;;;;;;;5.22;0.50;;;;;;;;;;5360270;26;95831;-54
2024/04/10 13:12:02;;;;;;;4.22;0.20;;;;;;;;;;5291382;26;96050;-54
2024/04/10 13:14:28;;;;;;;3.80;0.15;;;;;;;;;;5287603;26;95639;-53
2024/04/10 13:16:53;;;;;;;13.02;0.55;;;;;;;;;;5304324;26;96192;-51
2024/04/10 13:19:19;;;;;;;6.03;0.30;;;;;;;;;;5308301;26;96671;-51
2024/04/10 13:21:44;;;;;;;3.45;0.20;;;;;;;;;;5302147;26;96303;-52
2024/04/10 13:24:09;;;;;;;5.07;0.20;;;;;;;;;;5305935;26;96486;-51
2024/04/10 13:26:35;;;;;;;3.15;0.28;;;;;;;;;;5310337;26;97427;-51
2024/04/10 13:29:00;;;;;;;3.08;0.20;;;;;;;;;;5294921;26;95829;-53
2024/04/10 13:31:25;;;;;;;8.60;0.30;;;;;;;;;;5289097;26;99238;-52
2024/04/10 13:33:55;;;;;;;4.55;0.70;;;;;;;;;;5317938;26;96110;-53
2024/04/10 13:36:21;;;;;;;;;;;;;;;;;;5304894;26;96374;-52
2024/04/10 13:38:47;;;;;;;4.65;0.35;;;;;;;;;;5342505;26;95990;-52
2024/04/10 13:41:14;;;;;;;4.95;0.30;;;;;;;;;;5305082;26;95708;-53
2024/04/10 13:43:41;;;;;;;2.00;0.17;;;;;;;;;;5289622;26;96059;-52
2024/04/10 13:46:09;;;;;;;3.22;0.10;;;;;;;;;;5314586;26;96314;-51
2024/04/10 13:48:35;;;;;;;5.85;0.55;;;;;;;;;;5296066;26;95603;-51
2024/04/10 13:51:01;;;;;;;5.90;0.30;;;;;;;;;;5299931;26;95959;-50
2024/04/10 13:53:26;;;;;;;4.50;0.40;;;;;;;;;;5320724;26;95914;-51
2024/04/10 13:56:06;;;;;;;33.70;1.63;;;;;;;;;;5301541;26;95930;-50
2024/04/10 13:58:32;;;;;;;5.53;0.22;;;;;;;;;;5317303;26;96050;-51
2024/04/10 14:00:57;;;;;;;3.50;0.20;;;;;;;;;;5312640;26;95627;-52
2024/04/10 14:03:23;;;;;;;2.70;0.30;;;;;;;;;;5296763;26;96059;-54
2024/04/10 14:05:58;;;;;;;3.15;0.30;;;;;;;;;;5295882;26;96037;-49
2024/04/10 14:08:24;;;;;;;3.42;0.20;;;;;;;;;;5318693;26;95932;-50
2024/04/10 14:10:49;;;;;;;4.80;0.32;;;;;;;;;;5338780;26;96269;-54
2024/04/10 14:13:14;;;;;;;4.15;0.20;;;;;;;;;;5333623;26;96058;-52
2024/04/10 14:15:40;;;;;;;6.30;0.40;;;;;;;;;;5331743;26;96057;-49
2024/04/10 14:18:05;;;;;;;3.97;0.20;;;;;;;;;;5344730;26;99640;-49
2024/04/10 14:20:30;;;;;;;7.97;0.40;;;;;;;;;;5326817;26;95985;-52
2024/04/10 14:22:56;;;;;;;4.93;0.20;;;;;;;;;;5322137;26;99397;-50
2024/04/10 14:25:22;;;;;;;5.43;0.30;;;;;;;;;;5323302;26;96138;-52
2024/04/10 14:27:49;;;;;;;3.63;0.25;;;;;;;;;;5324546;26;95652;-52
2024/04/10 14:30:14;;;;;;;3.38;0.52;;;;;;;;;;5323658;26;96065;-52
2024/04/10 14:32:39;;;;;;;3.13;0.30;;;;;;;;;;5341932;26;96220;-53
2024/04/10 14:35:06;;;;;;;6.28;0.30;;;;;;;;;;5334718;26;97072;-50
2024/04/10 14:37:32;;;;;;;3.17;0.30;;;;;;;;;;5324458;26;96117;-50
2024/04/10 14:39:58;;;;;;;8.65;0.93;;;;;;;;;;5332861;26;95768;-53